Pagina principală
METAR-TAF:

METAR-TAF

Aeroporturi :

Portorož, Slovenia

Latitudine: 45-31N, longitudine: 013-34E, elevație: 95 m

Observații meteo curente

Raportul a fost făcut în urmă cu 49 de minute, la 09:00 UTC
Vânt 4 kt de la Nord-vest, variabil între Vest și Nord/Nord-est
Temperatură 32°C
Umiditate 49%
Presiune 1013 hPa
Vizibilitate de 10 km sau mai mult
nu există nori sub 1.500 m și nici cumulonimbus

METAR: LJPZ 170900Z 31004KT 280V030 CAVOK 32/20 Q1013

Ora: 11:49 (09:49 UTC)

Prognoză

Raportul a fost făcut în urmă cu 1 oră și 49 de minute, la 08:00 UTC
Prognoză valabilă de la 17 ora 09 UTC la 17 ora 18 UTC
Vânt 5 kt de la Vest/Nord-vest
Vizibilitate de 10 km sau mai mult
nu există nori sub 1.500 m și nici cumulonimbus
Probabilitate 30% :
Temporar
de la 17 ora 12 UTC la 17 ora 15 UTC
Nori puțini la o înălțime de 5000 picior, Cumulus congestus.

TAF: LJPZ 170800Z 1709/1718 30005KT CAVOK PROB30 TEMPO 1712/1715 FEW050TCU

Observații și prognoze meteo pentru peste 4.000 de aeroporturi (rapoarte METAR și TAF).

Stațiile disponibile sunt reprezentate pe hartă prin puncte galbene și roșii.

Țineți indicatorul mouse-ului pe punctul dorit pentru a vedea denumirea stației.

Apoi, faceți clic pentru a vedea observațiile și prognozele meteorologice.

Pentru a schimba harta: Pentru mărire, faceți clic pe butoanele verzi cu cruce neagră; pentru micșorare, pe butonul verde cu o liniuță; pentru hărți învecinate, pe săgețile verzi.


METAR-TAF: